sensor_id;sensor_type;location;lat;lon;timestamp;P1;durP1;ratioP1;P2;durP2;ratioP2
74974;SDS011;68459;50.836;19.138;2023-11-21T00:00:22;1.98;;;0.80;;
74974;SDS011;68459;50.836;19.138;2023-11-21T00:03:46;1.92;;;0.80;;
74974;SDS011;68459;50.836;19.138;2023-11-21T00:07:09;2.15;;;0.80;;
74974;SDS011;68459;50.836;19.138;2023-11-21T00:10:33;2.38;;;0.80;;
74974;SDS011;68459;50.836;19.138;2023-11-21T00:13:56;4.03;;;0.77;;
74974;SDS011;68459;50.836;19.138;2023-11-21T00:17:18;2.78;;;1.00;;
74974;SDS011;68459;50.836;19.138;2023-11-21T00:20:40;2.58;;;0.95;;
74974;SDS011;68459;50.836;19.138;2023-11-21T00:24:03;2.63;;;1.00;;
74974;SDS011;68459;50.836;19.138;2023-11-21T00:27:27;2.20;;;1.02;;
74974;SDS011;68459;50.836;19.138;2023-11-21T00:30:49;2.78;;;1.02;;
74974;SDS011;68459;50.836;19.138;2023-11-21T00:34:12;2.83;;;0.90;;
74974;SDS011;68459;50.836;19.138;2023-11-21T00:37:34;1.60;;;0.60;;
74974;SDS011;68459;50.836;19.138;2023-11-21T00:40:59;2.92;;;0.90;;
74974;SDS011;68459;50.836;19.138;2023-11-21T00:44:22;1.52;;;0.57;;
74974;SDS011;68459;50.836;19.138;2023-11-21T00:47:29;1.73;;;0.60;;
74974;SDS011;68459;50.836;19.138;2023-11-21T00:50:33;3.03;;;0.90;;
74974;SDS011;68459;50.836;19.138;2023-11-21T00:53:37;2.22;;;0.70;;
74974;SDS011;68459;50.836;19.138;2023-11-21T00:56:41;1.70;;;0.80;;
74974;SDS011;68459;50.836;19.138;2023-11-21T00:59:46;2.13;;;0.80;;
74974;SDS011;68459;50.836;19.138;2023-11-21T01:02:50;1.92;;;0.73;;
74974;SDS011;68459;50.836;19.138;2023-11-21T01:05:54;3.35;;;1.00;;
74974;SDS011;68459;50.836;19.138;2023-11-21T01:08:58;2.08;;;0.70;;
74974;SDS011;68459;50.836;19.138;2023-11-21T01:12:03;1.48;;;0.70;;
74974;SDS011;68459;50.836;19.138;2023-11-21T01:15:10;2.60;;;0.70;;
74974;SDS011;68459;50.836;19.138;2023-11-21T01:18:14;2.07;;;0.67;;
74974;SDS011;68459;50.836;19.138;2023-11-21T01:21:18;1.40;;;0.70;;
74974;SDS011;68459;50.836;19.138;2023-11-21T01:24:22;1.27;;;0.50;;
74974;SDS011;68459;50.836;19.138;2023-11-21T01:27:26;2.30;;;0.77;;
74974;SDS011;68459;50.836;19.138;2023-11-21T01:30:31;2.40;;;0.88;;
74974;SDS011;68459;50.836;19.138;2023-11-21T01:33:35;1.88;;;0.65;;
74974;SDS011;68459;50.836;19.138;2023-11-21T01:36:39;2.10;;;0.60;;
74974;SDS011;68459;50.836;19.138;2023-11-21T01:39:43;2.00;;;0.60;;
74974;SDS011;68459;50.836;19.138;2023-11-21T01:42:49;1.95;;;0.80;;
74974;SDS011;68459;50.836;19.138;2023-11-21T01:45:54;4.32;;;0.80;;
74974;SDS011;68459;50.836;19.138;2023-11-21T01:49:00;1.67;;;0.70;;
74974;SDS011;68459;50.836;19.138;2023-11-21T01:52:04;1.88;;;0.70;;
74974;SDS011;68459;50.836;19.138;2023-11-21T01:55:10;4.00;;;0.90;;
74974;SDS011;68459;50.836;19.138;2023-11-21T01:58:22;1.77;;;0.70;;
74974;SDS011;68459;50.836;19.138;2023-11-21T02:01:27;1.73;;;0.70;;
74974;SDS011;68459;50.836;19.138;2023-11-21T02:04:31;1.83;;;0.90;;
74974;SDS011;68459;50.836;19.138;2023-11-21T02:07:37;1.98;;;0.80;;
74974;SDS011;68459;50.836;19.138;2023-11-21T02:10:41;2.22;;;0.73;;
74974;SDS011;68459;50.836;19.138;2023-11-21T02:13:45;1.92;;;0.90;;
74974;SDS011;68459;50.836;19.138;2023-11-21T02:16:53;1.63;;;0.57;;
74974;SDS011;68459;50.836;19.138;2023-11-21T02:19:59;1.97;;;0.60;;
74974;SDS011;68459;50.836;19.138;2023-11-21T02:23:04;1.90;;;0.80;;
74974;SDS011;68459;50.836;19.138;2023-11-21T02:26:08;2.20;;;0.73;;
74974;SDS011;68459;50.836;19.138;2023-11-21T02:29:11;1.87;;;0.80;;
74974;SDS011;68459;50.836;19.138;2023-11-21T02:32:15;1.70;;;0.77;;
74974;SDS011;68459;50.836;19.138;2023-11-21T02:35:20;1.75;;;0.65;;
74974;SDS011;68459;50.836;19.138;2023-11-21T02:38:26;2.38;;;0.80;;
74974;SDS011;68459;50.836;19.138;2023-11-21T02:41:29;2.50;;;0.80;;
74974;SDS011;68459;50.836;19.138;2023-11-21T02:44:33;2.13;;;0.98;;
74974;SDS011;68459;50.836;19.138;2023-11-21T02:47:37;2.42;;;0.88;;
74974;SDS011;68459;50.836;19.138;2023-11-21T02:50:41;2.00;;;0.80;;
74974;SDS011;68459;50.836;19.138;2023-11-21T02:53:46;2.63;;;1.20;;
74974;SDS011;68459;50.836;19.138;2023-11-21T02:56:50;3.38;;;1.40;;
74974;SDS011;68459;50.836;19.138;2023-11-21T02:59:54;2.53;;;1.33;;
74974;SDS011;68459;50.836;19.138;2023-11-21T03:02:58;9.73;;;2.67;;
74974;SDS011;68459;50.836;19.138;2023-11-21T03:06:02;7.65;;;3.13;;
74974;SDS011;68459;50.836;19.138;2023-11-21T03:09:08;8.38;;;2.83;;
74974;SDS011;68459;50.836;19.138;2023-11-21T03:12:11;9.00;;;3.08;;
74974;SDS011;68459;50.836;19.138;2023-11-21T03:15:15;10.25;;;3.90;;
74974;SDS011;68459;50.836;19.138;2023-11-21T03:18:19;10.45;;;4.03;;
74974;SDS011;68459;50.836;19.138;2023-11-21T03:21:24;7.80;;;3.40;;
74974;SDS011;68459;50.836;19.138;2023-11-21T03:24:29;8.00;;;3.53;;
74974;SDS011;68459;50.836;19.138;2023-11-21T03:27:34;5.57;;;2.20;;
74974;SDS011;68459;50.836;19.138;2023-11-21T03:30:37;5.00;;;2.20;;
74974;SDS011;68459;50.836;19.138;2023-11-21T03:33:41;6.03;;;2.40;;
74974;SDS011;68459;50.836;19.138;2023-11-21T03:36:45;4.88;;;2.50;;
74974;SDS011;68459;50.836;19.138;2023-11-21T03:39:50;4.47;;;2.63;;
74974;SDS011;68459;50.836;19.138;2023-11-21T03:42:54;5.25;;;2.42;;
74974;SDS011;68459;50.836;19.138;2023-11-21T03:45:58;4.85;;;2.70;;
74974;SDS011;68459;50.836;19.138;2023-11-21T03:49:02;4.78;;;2.63;;
74974;SDS011;68459;50.836;19.138;2023-11-21T03:52:05;4.63;;;2.43;;
74974;SDS011;68459;50.836;19.138;2023-11-21T03:55:12;5.05;;;2.70;;
74974;SDS011;68459;50.836;19.138;2023-11-21T03:58:17;6.03;;;2.88;;
74974;SDS011;68459;50.836;19.138;2023-11-21T04:01:21;6.73;;;3.30;;
74974;SDS011;68459;50.836;19.138;2023-11-21T04:04:26;6.97;;;2.92;;
74974;SDS011;68459;50.836;19.138;2023-11-21T04:07:30;4.65;;;2.67;;
74974;SDS011;68459;50.836;19.138;2023-11-21T04:10:35;4.43;;;2.55;;
74974;SDS011;68459;50.836;19.138;2023-11-21T04:13:41;4.78;;;2.88;;
74974;SDS011;68459;50.836;19.138;2023-11-21T04:16:45;6.70;;;3.20;;
74974;SDS011;68459;50.836;19.138;2023-11-21T04:19:49;8.63;;;3.80;;
74974;SDS011;68459;50.836;19.138;2023-11-21T04:22:53;8.80;;;3.70;;
74974;SDS011;68459;50.836;19.138;2023-11-21T04:25:58;6.82;;;3.60;;
74974;SDS011;68459;50.836;19.138;2023-11-21T04:29:04;7.28;;;3.63;;
74974;SDS011;68459;50.836;19.138;2023-11-21T04:32:07;7.87;;;3.57;;
74974;SDS011;68459;50.836;19.138;2023-11-21T04:35:11;7.63;;;3.75;;
74974;SDS011;68459;50.836;19.138;2023-11-21T04:38:15;9.60;;;4.38;;
74974;SDS011;68459;50.836;19.138;2023-11-21T04:41:20;8.48;;;4.25;;
74974;SDS011;68459;50.836;19.138;2023-11-21T04:44:24;8.52;;;4.07;;
74974;SDS011;68459;50.836;19.138;2023-11-21T04:47:27;9.02;;;4.55;;
74974;SDS011;68459;50.836;19.138;2023-11-21T04:50:31;11.02;;;5.05;;
74974;SDS011;68459;50.836;19.138;2023-11-21T04:53:35;10.17;;;5.03;;
74974;SDS011;68459;50.836;19.138;2023-11-21T04:56:40;10.18;;;4.82;;
74974;SDS011;68459;50.836;19.138;2023-11-21T04:59:44;8.27;;;4.75;;
74974;SDS011;68459;50.836;19.138;2023-11-21T05:02:48;10.67;;;4.70;;
74974;SDS011;68459;50.836;19.138;2023-11-21T05:05:52;9.57;;;5.38;;
74974;SDS011;68459;50.836;19.138;2023-11-21T05:08:55;11.02;;;4.97;;
74974;SDS011;68459;50.836;19.138;2023-11-21T05:12:02;11.80;;;5.43;;
74974;SDS011;68459;50.836;19.138;2023-11-21T05:15:06;11.77;;;5.28;;
74974;SDS011;68459;50.836;19.138;2023-11-21T05:18:12;14.07;;;5.60;;
74974;SDS011;68459;50.836;19.138;2023-11-21T05:21:16;14.32;;;5.63;;
74974;SDS011;68459;50.836;19.138;2023-11-21T05:24:22;8.33;;;3.87;;
74974;SDS011;68459;50.836;19.138;2023-11-21T05:27:27;13.32;;;4.68;;
74974;SDS011;68459;50.836;19.138;2023-11-21T05:30:31;11.73;;;4.82;;
74974;SDS011;68459;50.836;19.138;2023-11-21T05:33:35;13.03;;;5.80;;
74974;SDS011;68459;50.836;19.138;2023-11-21T05:36:38;13.60;;;5.18;;
74974;SDS011;68459;50.836;19.138;2023-11-21T05:39:42;9.77;;;4.88;;
74974;SDS011;68459;50.836;19.138;2023-11-21T05:42:48;9.73;;;4.13;;
74974;SDS011;68459;50.836;19.138;2023-11-21T05:45:53;10.13;;;4.65;;
74974;SDS011;68459;50.836;19.138;2023-11-21T05:48:56;6.10;;;2.60;;
74974;SDS011;68459;50.836;19.138;2023-11-21T05:52:00;5.60;;;2.88;;
74974;SDS011;68459;50.836;19.138;2023-11-21T05:55:04;3.83;;;1.70;;
74974;SDS011;68459;50.836;19.138;2023-11-21T05:58:11;2.72;;;1.30;;
74974;SDS011;68459;50.836;19.138;2023-11-21T06:01:15;2.92;;;1.50;;
74974;SDS011;68459;50.836;19.138;2023-11-21T06:04:19;4.00;;;1.73;;
74974;SDS011;68459;50.836;19.138;2023-11-21T06:07:26;4.20;;;1.90;;
74974;SDS011;68459;50.836;19.138;2023-11-21T06:10:33;3.25;;;1.70;;
74974;SDS011;68459;50.836;19.138;2023-11-21T06:13:40;3.40;;;1.90;;
74974;SDS011;68459;50.836;19.138;2023-11-21T06:16:45;2.83;;;1.73;;
74974;SDS011;68459;50.836;19.138;2023-11-21T06:19:49;3.72;;;1.95;;
74974;SDS011;68459;50.836;19.138;2023-11-21T06:22:54;5.00;;;2.17;;
74974;SDS011;68459;50.836;19.138;2023-11-21T06:25:58;4.17;;;2.17;;
74974;SDS011;68459;50.836;19.138;2023-11-21T06:29:03;4.05;;;2.25;;
74974;SDS011;68459;50.836;19.138;2023-11-21T06:32:09;4.20;;;2.35;;
74974;SDS011;68459;50.836;19.138;2023-11-21T06:35:12;3.50;;;2.20;;
74974;SDS011;68459;50.836;19.138;2023-11-21T06:38:18;3.70;;;2.03;;
74974;SDS011;68459;50.836;19.138;2023-11-21T06:41:22;3.17;;;1.85;;
74974;SDS011;68459;50.836;19.138;2023-11-21T06:44:27;2.78;;;1.50;;
74974;SDS011;68459;50.836;19.138;2023-11-21T06:47:30;2.40;;;1.40;;
74974;SDS011;68459;50.836;19.138;2023-11-21T06:50:35;2.40;;;1.27;;
74974;SDS011;68459;50.836;19.138;2023-11-21T06:53:38;2.58;;;1.20;;
74974;SDS011;68459;50.836;19.138;2023-11-21T06:56:43;2.70;;;1.10;;
74974;SDS011;68459;50.836;19.138;2023-11-21T06:59:48;2.55;;;1.13;;
74974;SDS011;68459;50.836;19.138;2023-11-21T07:02:52;2.97;;;1.50;;
74974;SDS011;68459;50.836;19.138;2023-11-21T07:05:56;3.17;;;1.43;;
74974;SDS011;68459;50.836;19.138;2023-11-21T07:08:59;3.20;;;1.40;;
74974;SDS011;68459;50.836;19.138;2023-11-21T07:12:05;4.00;;;1.63;;
74974;SDS011;68459;50.836;19.138;2023-11-21T07:15:11;4.72;;;1.90;;
74974;SDS011;68459;50.836;19.138;2023-11-21T07:18:15;4.47;;;1.50;;
74974;SDS011;68459;50.836;19.138;2023-11-21T07:21:19;3.72;;;1.83;;
74974;SDS011;68459;50.836;19.138;2023-11-21T07:24:23;4.45;;;1.85;;
74974;SDS011;68459;50.836;19.138;2023-11-21T07:27:28;3.93;;;1.50;;
74974;SDS011;68459;50.836;19.138;2023-11-21T07:30:33;3.42;;;1.67;;
74974;SDS011;68459;50.836;19.138;2023-11-21T07:33:37;2.97;;;1.83;;
74974;SDS011;68459;50.836;19.138;2023-11-21T07:36:41;3.23;;;1.93;;
74974;SDS011;68459;50.836;19.138;2023-11-21T07:39:45;2.28;;;1.30;;
74974;SDS011;68459;50.836;19.138;2023-11-21T07:42:48;2.95;;;1.20;;
74974;SDS011;68459;50.836;19.138;2023-11-21T07:45:54;3.20;;;1.45;;
74974;SDS011;68459;50.836;19.138;2023-11-21T07:48:58;2.00;;;1.15;;
74974;SDS011;68459;50.836;19.138;2023-11-21T07:52:02;2.97;;;1.30;;
74974;SDS011;68459;50.836;19.138;2023-11-21T07:55:06;3.42;;;1.20;;
74974;SDS011;68459;50.836;19.138;2023-11-21T07:58:11;2.27;;;1.20;;
74974;SDS011;68459;50.836;19.138;2023-11-21T08:01:15;2.58;;;1.30;;
74974;SDS011;68459;50.836;19.138;2023-11-21T08:04:19;3.33;;;1.70;;
74974;SDS011;68459;50.836;19.138;2023-11-21T08:07:23;3.13;;;1.70;;
74974;SDS011;68459;50.836;19.138;2023-11-21T08:10:28;2.95;;;1.48;;
74974;SDS011;68459;50.836;19.138;2023-11-21T08:13:32;2.35;;;1.10;;
74974;SDS011;68459;50.836;19.138;2023-11-21T08:16:37;3.58;;;1.48;;
74974;SDS011;68459;50.836;19.138;2023-11-21T08:19:41;4.07;;;1.60;;
74974;SDS011;68459;50.836;19.138;2023-11-21T08:22:45;3.22;;;1.25;;
74974;SDS011;68459;50.836;19.138;2023-11-21T08:25:50;2.88;;;0.90;;
74974;SDS011;68459;50.836;19.138;2023-11-21T08:28:56;2.30;;;1.20;;
74974;SDS011;68459;50.836;19.138;2023-11-21T08:32:01;3.60;;;2.17;;
74974;SDS011;68459;50.836;19.138;2023-11-21T08:35:07;3.75;;;1.30;;
74974;SDS011;68459;50.836;19.138;2023-11-21T08:38:12;2.30;;;1.30;;
74974;SDS011;68459;50.836;19.138;2023-11-21T08:41:16;2.53;;;1.13;;
74974;SDS011;68459;50.836;19.138;2023-11-21T08:44:22;3.80;;;1.80;;
74974;SDS011;68459;50.836;19.138;2023-11-21T08:47:28;3.63;;;1.55;;
74974;SDS011;68459;50.836;19.138;2023-11-21T08:50:32;2.75;;;1.70;;
74974;SDS011;68459;50.836;19.138;2023-11-21T08:53:36;3.22;;;1.60;;
74974;SDS011;68459;50.836;19.138;2023-11-21T08:56:39;2.47;;;1.50;;
74974;SDS011;68459;50.836;19.138;2023-11-21T08:59:43;2.70;;;1.60;;
74974;SDS011;68459;50.836;19.138;2023-11-21T09:02:48;3.65;;;1.80;;
74974;SDS011;68459;50.836;19.138;2023-11-21T09:05:52;3.38;;;1.70;;
74974;SDS011;68459;50.836;19.138;2023-11-21T09:08:56;3.93;;;1.67;;
74974;SDS011;68459;50.836;19.138;2023-11-21T09:12:00;4.07;;;2.45;;
74974;SDS011;68459;50.836;19.138;2023-11-21T09:15:04;2.40;;;1.27;;
74974;SDS011;68459;50.836;19.138;2023-11-21T09:18:11;3.50;;;1.83;;
74974;SDS011;68459;50.836;19.138;2023-11-21T09:21:15;6.78;;;2.85;;
74974;SDS011;68459;50.836;19.138;2023-11-21T09:24:19;3.58;;;1.95;;
74974;SDS011;68459;50.836;19.138;2023-11-21T09:27:22;2.60;;;1.30;;
74974;SDS011;68459;50.836;19.138;2023-11-21T09:30:27;3.47;;;1.50;;
74974;SDS011;68459;50.836;19.138;2023-11-21T09:33:34;4.18;;;2.05;;
74974;SDS011;68459;50.836;19.138;2023-11-21T09:36:40;3.40;;;2.03;;
74974;SDS011;68459;50.836;19.138;2023-11-21T09:39:43;4.47;;;1.87;;
74974;SDS011;68459;50.836;19.138;2023-11-21T09:42:52;3.58;;;2.03;;
74974;SDS011;68459;50.836;19.138;2023-11-21T09:46:00;5.05;;;2.20;;
74974;SDS011;68459;50.836;19.138;2023-11-21T09:49:14;4.70;;;1.88;;
74974;SDS011;68459;50.836;19.138;2023-11-21T09:52:22;5.18;;;2.08;;
74974;SDS011;68459;50.836;19.138;2023-11-21T09:55:29;4.65;;;2.30;;
74974;SDS011;68459;50.836;19.138;2023-11-21T09:58:38;5.78;;;2.90;;
74974;SDS011;68459;50.836;19.138;2023-11-21T10:01:42;4.73;;;2.77;;
74974;SDS011;68459;50.836;19.138;2023-11-21T10:04:47;4.72;;;2.45;;
74974;SDS011;68459;50.836;19.138;2023-11-21T10:07:52;4.68;;;2.67;;
74974;SDS011;68459;50.836;19.138;2023-11-21T10:11:00;4.93;;;2.10;;
74974;SDS011;68459;50.836;19.138;2023-11-21T10:14:04;5.03;;;2.70;;
74974;SDS011;68459;50.836;19.138;2023-11-21T10:17:10;3.95;;;2.17;;
74974;SDS011;68459;50.836;19.138;2023-11-21T10:20:19;3.22;;;1.92;;
74974;SDS011;68459;50.836;19.138;2023-11-21T10:23:23;4.13;;;2.55;;
74974;SDS011;68459;50.836;19.138;2023-11-21T10:26:27;5.20;;;2.15;;
74974;SDS011;68459;50.836;19.138;2023-11-21T10:29:41;5.50;;;3.22;;
74974;SDS011;68459;50.836;19.138;2023-11-21T10:32:45;4.17;;;2.33;;
74974;SDS011;68459;50.836;19.138;2023-11-21T10:35:51;3.75;;;2.40;;
74974;SDS011;68459;50.836;19.138;2023-11-21T10:38:57;3.75;;;2.30;;
74974;SDS011;68459;50.836;19.138;2023-11-21T10:42:00;5.73;;;2.80;;
74974;SDS011;68459;50.836;19.138;2023-11-21T10:45:04;4.18;;;2.50;;
74974;SDS011;68459;50.836;19.138;2023-11-21T10:48:13;5.82;;;2.92;;
74974;SDS011;68459;50.836;19.138;2023-11-21T10:51:20;5.93;;;2.30;;
74974;SDS011;68459;50.836;19.138;2023-11-21T10:54:25;5.15;;;2.90;;
74974;SDS011;68459;50.836;19.138;2023-11-21T10:57:29;5.30;;;2.90;;
74974;SDS011;68459;50.836;19.138;2023-11-21T11:00:34;4.90;;;2.53;;
74974;SDS011;68459;50.836;19.138;2023-11-21T11:03:39;4.53;;;2.30;;
74974;SDS011;68459;50.836;19.138;2023-11-21T11:06:49;3.88;;;2.47;;
74974;SDS011;68459;50.836;19.138;2023-11-21T11:09:58;3.20;;;2.00;;
74974;SDS011;68459;50.836;19.138;2023-11-21T11:13:02;3.87;;;2.30;;
74974;SDS011;68459;50.836;19.138;2023-11-21T11:16:09;3.33;;;1.80;;
74974;SDS011;68459;50.836;19.138;2023-11-21T11:19:19;4.63;;;2.40;;
74974;SDS011;68459;50.836;19.138;2023-11-21T11:22:28;4.00;;;1.98;;
74974;SDS011;68459;50.836;19.138;2023-11-21T11:25:54;5.15;;;1.90;;
74974;SDS011;68459;50.836;19.138;2023-11-21T11:29:19;4.25;;;2.13;;
74974;SDS011;68459;50.836;19.138;2023-11-21T11:32:40;5.85;;;3.08;;
74974;SDS011;68459;50.836;19.138;2023-11-21T11:36:00;7.77;;;3.30;;
74974;SDS011;68459;50.836;19.138;2023-11-21T11:42:37;5.55;;;2.70;;
74974;SDS011;68459;50.836;19.138;2023-11-21T11:45:42;5.03;;;2.40;;
74974;SDS011;68459;50.836;19.138;2023-11-21T11:49:02;5.20;;;2.95;;
74974;SDS011;68459;50.836;19.138;2023-11-21T11:55:40;5.30;;;2.75;;
74974;SDS011;68459;50.836;19.138;2023-11-21T11:58:44;4.95;;;3.25;;
74974;SDS011;68459;50.836;19.138;2023-11-21T12:01:48;5.35;;;3.15;;
74974;SDS011;68459;50.836;19.138;2023-11-21T12:04:55;4.28;;;2.38;;
74974;SDS011;68459;50.836;19.138;2023-11-21T12:08:00;7.00;;;3.83;;
74974;SDS011;68459;50.836;19.138;2023-11-21T12:11:07;4.22;;;2.50;;
74974;SDS011;68459;50.836;19.138;2023-11-21T12:14:13;6.00;;;2.13;;
74974;SDS011;68459;50.836;19.138;2023-11-21T12:17:17;6.07;;;3.63;;
74974;SDS011;68459;50.836;19.138;2023-11-21T12:20:23;12.55;;;6.78;;
74974;SDS011;68459;50.836;19.138;2023-11-21T12:23:28;12.70;;;7.25;;
74974;SDS011;68459;50.836;19.138;2023-11-21T12:26:33;14.60;;;7.72;;
74974;SDS011;68459;50.836;19.138;2023-11-21T12:29:38;16.77;;;7.82;;
74974;SDS011;68459;50.836;19.138;2023-11-21T12:32:44;17.05;;;7.78;;
74974;SDS011;68459;50.836;19.138;2023-11-21T12:35:51;16.10;;;7.05;;
74974;SDS011;68459;50.836;19.138;2023-11-21T12:38:56;16.07;;;7.53;;
74974;SDS011;68459;50.836;19.138;2023-11-21T12:42:01;15.48;;;7.28;;
74974;SDS011;68459;50.836;19.138;2023-11-21T12:45:09;13.57;;;6.93;;
74974;SDS011;68459;50.836;19.138;2023-11-21T12:48:23;14.87;;;7.63;;
74974;SDS011;68459;50.836;19.138;2023-11-21T12:51:27;15.40;;;7.10;;
74974;SDS011;68459;50.836;19.138;2023-11-21T12:54:32;15.13;;;7.55;;
74974;SDS011;68459;50.836;19.138;2023-11-21T12:57:41;16.13;;;8.20;;
74974;SDS011;68459;50.836;19.138;2023-11-21T13:00:47;17.30;;;7.60;;
74974;SDS011;68459;50.836;19.138;2023-11-21T13:03:56;14.05;;;7.85;;
74974;SDS011;68459;50.836;19.138;2023-11-21T13:07:04;16.92;;;7.82;;
74974;SDS011;68459;50.836;19.138;2023-11-21T13:10:14;16.00;;;8.23;;
74974;SDS011;68459;50.836;19.138;2023-11-21T13:13:21;16.25;;;8.00;;
74974;SDS011;68459;50.836;19.138;2023-11-21T13:16:26;16.58;;;8.07;;
74974;SDS011;68459;50.836;19.138;2023-11-21T13:19:30;14.00;;;6.90;;
74974;SDS011;68459;50.836;19.138;2023-11-21T13:22:34;12.73;;;7.28;;
74974;SDS011;68459;50.836;19.138;2023-11-21T13:25:38;13.02;;;7.68;;
74974;SDS011;68459;50.836;19.138;2023-11-21T13:28:45;14.05;;;7.50;;
74974;SDS011;68459;50.836;19.138;2023-11-21T13:31:49;16.00;;;7.25;;
74974;SDS011;68459;50.836;19.138;2023-11-21T13:34:55;18.42;;;8.25;;
74974;SDS011;68459;50.836;19.138;2023-11-21T13:38:03;17.73;;;7.93;;
74974;SDS011;68459;50.836;19.138;2023-11-21T13:41:11;20.87;;;8.70;;
74974;SDS011;68459;50.836;19.138;2023-11-21T13:44:17;17.40;;;8.60;;
74974;SDS011;68459;50.836;19.138;2023-11-21T13:47:29;20.48;;;9.02;;
74974;SDS011;68459;50.836;19.138;2023-11-21T13:50:33;18.87;;;9.73;;
74974;SDS011;68459;50.836;19.138;2023-11-21T13:53:37;19.60;;;9.70;;
74974;SDS011;68459;50.836;19.138;2023-11-21T13:56:43;19.35;;;9.27;;
74974;SDS011;68459;50.836;19.138;2023-11-21T13:59:52;21.83;;;9.38;;
74974;SDS011;68459;50.836;19.138;2023-11-21T14:02:56;18.48;;;8.48;;
74974;SDS011;68459;50.836;19.138;2023-11-21T14:06:02;18.20;;;8.25;;
74974;SDS011;68459;50.836;19.138;2023-11-21T14:09:15;20.48;;;9.35;;
74974;SDS011;68459;50.836;19.138;2023-11-21T14:12:24;18.30;;;8.20;;
74974;SDS011;68459;50.836;19.138;2023-11-21T14:15:29;16.02;;;8.43;;
74974;SDS011;68459;50.836;19.138;2023-11-21T14:18:35;18.40;;;8.38;;
74974;SDS011;68459;50.836;19.138;2023-11-21T14:21:45;16.63;;;8.10;;
74974;SDS011;68459;50.836;19.138;2023-11-21T14:24:50;17.05;;;7.40;;
74974;SDS011;68459;50.836;19.138;2023-11-21T14:27:54;13.13;;;6.40;;
74974;SDS011;68459;50.836;19.138;2023-11-21T14:30:59;10.45;;;5.25;;
74974;SDS011;68459;50.836;19.138;2023-11-21T14:34:03;12.60;;;5.53;;
74974;SDS011;68459;50.836;19.138;2023-11-21T14:37:08;10.45;;;5.40;;
74974;SDS011;68459;50.836;19.138;2023-11-21T14:40:15;9.05;;;4.80;;
74974;SDS011;68459;50.836;19.138;2023-11-21T14:43:23;7.73;;;4.13;;
74974;SDS011;68459;50.836;19.138;2023-11-21T14:46:29;8.52;;;4.13;;
74974;SDS011;68459;50.836;19.138;2023-11-21T14:49:33;10.40;;;4.75;;
74974;SDS011;68459;50.836;19.138;2023-11-21T14:52:52;8.87;;;4.47;;
74974;SDS011;68459;50.836;19.138;2023-11-21T14:56:00;8.57;;;4.53;;
74974;SDS011;68459;50.836;19.138;2023-11-21T14:59:06;8.25;;;4.38;;
74974;SDS011;68459;50.836;19.138;2023-11-21T15:02:16;9.25;;;4.55;;
74974;SDS011;68459;50.836;19.138;2023-11-21T15:05:23;6.88;;;3.70;;
74974;SDS011;68459;50.836;19.138;2023-11-21T15:08:29;5.63;;;2.97;;
74974;SDS011;68459;50.836;19.138;2023-11-21T15:11:33;6.68;;;2.95;;
74974;SDS011;68459;50.836;19.138;2023-11-21T15:14:39;5.23;;;3.10;;
74974;SDS011;68459;50.836;19.138;2023-11-21T15:17:46;5.20;;;2.70;;
74974;SDS011;68459;50.836;19.138;2023-11-21T15:20:50;5.28;;;2.75;;
74974;SDS011;68459;50.836;19.138;2023-11-21T15:23:54;4.57;;;2.77;;
74974;SDS011;68459;50.836;19.138;2023-11-21T15:26:57;5.40;;;2.95;;
74974;SDS011;68459;50.836;19.138;2023-11-21T15:30:01;6.03;;;2.97;;
74974;SDS011;68459;50.836;19.138;2023-11-21T15:33:07;4.85;;;2.72;;
74974;SDS011;68459;50.836;19.138;2023-11-21T15:36:11;4.90;;;2.83;;
74974;SDS011;68459;50.836;19.138;2023-11-21T15:39:16;6.30;;;2.78;;
74974;SDS011;68459;50.836;19.138;2023-11-21T15:42:20;4.82;;;2.47;;
74974;SDS011;68459;50.836;19.138;2023-11-21T15:45:23;7.53;;;3.27;;
74974;SDS011;68459;50.836;19.138;2023-11-21T15:48:29;6.07;;;3.03;;
74974;SDS011;68459;50.836;19.138;2023-11-21T15:51:32;4.78;;;2.65;;
74974;SDS011;68459;50.836;19.138;2023-11-21T15:54:37;5.87;;;2.80;;
74974;SDS011;68459;50.836;19.138;2023-11-21T15:57:42;5.00;;;3.10;;
74974;SDS011;68459;50.836;19.138;2023-11-21T16:00:46;5.78;;;3.33;;
74974;SDS011;68459;50.836;19.138;2023-11-21T16:03:51;7.45;;;3.15;;
74974;SDS011;68459;50.836;19.138;2023-11-21T16:06:56;6.15;;;3.58;;
74974;SDS011;68459;50.836;19.138;2023-11-21T16:10:01;7.35;;;3.78;;
74974;SDS011;68459;50.836;19.138;2023-11-21T16:13:06;6.65;;;3.78;;
74974;SDS011;68459;50.836;19.138;2023-11-21T16:16:11;6.43;;;3.87;;
74974;SDS011;68459;50.836;19.138;2023-11-21T16:19:16;5.47;;;3.63;;
74974;SDS011;68459;50.836;19.138;2023-11-21T16:22:20;6.47;;;3.53;;
74974;SDS011;68459;50.836;19.138;2023-11-21T16:25:23;6.13;;;3.63;;
74974;SDS011;68459;50.836;19.138;2023-11-21T16:28:27;9.43;;;3.58;;
74974;SDS011;68459;50.836;19.138;2023-11-21T16:31:31;6.30;;;3.10;;
74974;SDS011;68459;50.836;19.138;2023-11-21T16:34:39;6.93;;;3.47;;
74974;SDS011;68459;50.836;19.138;2023-11-21T16:37:43;5.10;;;3.45;;
74974;SDS011;68459;50.836;19.138;2023-11-21T16:40:49;6.68;;;3.30;;
74974;SDS011;68459;50.836;19.138;2023-11-21T16:43:55;6.95;;;3.58;;
74974;SDS011;68459;50.836;19.138;2023-11-21T16:46:59;6.63;;;4.00;;
74974;SDS011;68459;50.836;19.138;2023-11-21T16:50:08;8.05;;;3.92;;
74974;SDS011;68459;50.836;19.138;2023-11-21T16:53:13;7.07;;;3.67;;
74974;SDS011;68459;50.836;19.138;2023-11-21T16:56:17;7.23;;;3.77;;
74974;SDS011;68459;50.836;19.138;2023-11-21T16:59:21;7.20;;;4.10;;
74974;SDS011;68459;50.836;19.138;2023-11-21T17:02:25;8.32;;;4.25;;
74974;SDS011;68459;50.836;19.138;2023-11-21T17:05:30;6.63;;;3.72;;
74974;SDS011;68459;50.836;19.138;2023-11-21T17:08:34;9.68;;;4.25;;
74974;SDS011;68459;50.836;19.138;2023-11-21T17:11:38;7.47;;;3.50;;
74974;SDS011;68459;50.836;19.138;2023-11-21T17:14:42;5.65;;;3.63;;
74974;SDS011;68459;50.836;19.138;2023-11-21T17:17:48;9.27;;;3.90;;
74974;SDS011;68459;50.836;19.138;2023-11-21T17:20:54;7.55;;;4.10;;
74974;SDS011;68459;50.836;19.138;2023-11-21T17:23:58;7.82;;;4.32;;
74974;SDS011;68459;50.836;19.138;2023-11-21T17:27:02;8.57;;;4.67;;
74974;SDS011;68459;50.836;19.138;2023-11-21T17:30:08;8.43;;;5.03;;
74974;SDS011;68459;50.836;19.138;2023-11-21T17:33:12;10.38;;;4.90;;
74974;SDS011;68459;50.836;19.138;2023-11-21T17:36:18;9.05;;;4.68;;
74974;SDS011;68459;50.836;19.138;2023-11-21T17:39:22;7.47;;;4.15;;
74974;SDS011;68459;50.836;19.138;2023-11-21T17:42:26;6.70;;;3.95;;
74974;SDS011;68459;50.836;19.138;2023-11-21T17:45:30;7.75;;;4.50;;
74974;SDS011;68459;50.836;19.138;2023-11-21T17:48:34;5.77;;;3.90;;
74974;SDS011;68459;50.836;19.138;2023-11-21T17:51:41;7.55;;;3.85;;
74974;SDS011;68459;50.836;19.138;2023-11-21T17:54:45;6.43;;;3.97;;
74974;SDS011;68459;50.836;19.138;2023-11-21T17:57:48;8.50;;;4.10;;
74974;SDS011;68459;50.836;19.138;2023-11-21T18:00:52;6.88;;;4.25;;
74974;SDS011;68459;50.836;19.138;2023-11-21T18:03:56;6.80;;;3.92;;
74974;SDS011;68459;50.836;19.138;2023-11-21T18:07:02;8.10;;;4.28;;
74974;SDS011;68459;50.836;19.138;2023-11-21T18:10:07;8.02;;;4.03;;
74974;SDS011;68459;50.836;19.138;2023-11-21T18:13:12;6.82;;;3.95;;
74974;SDS011;68459;50.836;19.138;2023-11-21T18:16:20;5.88;;;4.25;;
74974;SDS011;68459;50.836;19.138;2023-11-21T18:19:24;7.50;;;4.50;;
74974;SDS011;68459;50.836;19.138;2023-11-21T18:22:29;8.27;;;4.55;;
74974;SDS011;68459;50.836;19.138;2023-11-21T18:25:34;7.78;;;4.28;;
74974;SDS011;68459;50.836;19.138;2023-11-21T18:28:37;8.67;;;4.47;;